createdAt,value
2017-10-18T00:00:10.978Z,5.33
2017-10-18T00:02:39.146Z,5.67
2017-10-18T00:05:07.279Z,5.93
2017-10-18T00:07:36.181Z,6.00
2017-10-18T00:10:05.079Z,5.00
2017-10-18T00:12:33.978Z,5.33
2017-10-18T00:15:02.103Z,5.77
2017-10-18T00:17:30.344Z,5.20
2017-10-18T00:19:58.438Z,5.50
2017-10-18T00:22:26.592Z,5.67
2017-10-18T00:24:54.713Z,5.70
2017-10-18T00:27:23.674Z,5.30
2017-10-18T00:29:51.791Z,5.27
2017-10-18T00:32:19.992Z,5.20
2017-10-18T00:34:48.118Z,5.37
2017-10-18T00:37:16.236Z,4.90
2017-10-18T00:39:44.367Z,5.00
2017-10-18T00:42:13.260Z,5.40
2017-10-18T00:44:42.171Z,6.50
2017-10-18T00:47:10.280Z,5.13
2017-10-18T00:49:38.424Z,4.80
2017-10-18T00:52:06.544Z,5.37
2017-10-18T00:54:34.707Z,4.78
2017-10-18T00:57:02.808Z,5.00
2017-10-18T00:59:31.972Z,5.00
2017-10-18T01:02:00.127Z,5.10
2017-10-18T01:04:28.235Z,4.90
2017-10-18T01:06:56.371Z,4.60
2017-10-18T01:09:24.501Z,5.13
2017-10-18T01:11:53.406Z,5.40
2017-10-18T01:14:21.535Z,4.87
2017-10-18T01:16:49.668Z,4.73
2017-10-18T01:19:17.820Z,5.10
2017-10-18T01:21:46.720Z,4.50
2017-10-18T01:24:14.860Z,4.97
2017-10-18T01:26:42.987Z,4.50
2017-10-18T01:29:11.122Z,4.90
2017-10-18T01:31:40.005Z,5.23
2017-10-18T01:34:08.903Z,4.23
2017-10-18T01:36:37.805Z,5.07
2017-10-18T01:39:06.974Z,4.60
2017-10-18T01:41:35.874Z,5.20
2017-10-18T01:44:04.763Z,5.40
2017-10-18T01:46:33.654Z,4.87
2017-10-18T01:49:02.550Z,5.28
2017-10-18T01:51:31.450Z,4.43
2017-10-18T01:53:59.584Z,4.87
2017-10-18T01:56:27.976Z,5.23
2017-10-18T01:58:56.858Z,4.80
2017-10-18T02:01:24.982Z,4.90
2017-10-18T02:03:53.111Z,5.30
2017-10-18T02:06:22.012Z,5.53
2017-10-18T02:08:50.921Z,5.13
2017-10-18T02:11:19.035Z,4.40
2017-10-18T02:13:47.176Z,4.60
2017-10-18T02:16:15.300Z,5.40
2017-10-18T02:18:43.448Z,4.83
2017-10-18T02:21:11.569Z,4.68
2017-10-18T02:23:40.744Z,5.40
2017-10-18T02:26:09.637Z,6.30
2017-10-18T02:28:38.524Z,4.60
2017-10-18T02:31:07.438Z,5.27
2017-10-18T02:33:35.553Z,5.87
2017-10-18T02:36:03.674Z,5.40
2017-10-18T02:38:31.801Z,5.00
2017-10-18T02:40:59.948Z,6.05
2017-10-18T02:43:28.075Z,5.10
2017-10-18T02:45:56.979Z,6.20
2017-10-18T02:48:25.861Z,5.25
2017-10-18T02:50:54.785Z,6.10
2017-10-18T02:53:22.905Z,5.70
2017-10-18T02:55:51.007Z,5.85
2017-10-18T02:58:19.154Z,5.80
2017-10-18T03:00:47.275Z,5.20
2017-10-18T03:03:15.401Z,6.10
2017-10-18T03:05:44.291Z,5.68
2017-10-18T03:08:12.802Z,5.93
2017-10-18T03:10:41.687Z,5.57
2017-10-18T03:13:10.554Z,5.90
2017-10-18T03:15:39.456Z,5.50
2017-10-18T03:18:08.343Z,5.30
2017-10-18T03:20:37.235Z,5.20
2017-10-18T03:23:06.132Z,5.37
2017-10-18T03:25:34.286Z,5.13
2017-10-18T03:28:02.396Z,4.87
2017-10-18T03:30:30.527Z,5.03
2017-10-18T03:32:59.409Z,4.90
2017-10-18T03:35:27.517Z,5.07
2017-10-18T03:37:55.653Z,5.90
2017-10-18T03:40:23.877Z,5.13
2017-10-18T03:42:52.748Z,4.90
2017-10-18T03:45:20.881Z,5.70
2017-10-18T03:47:48.996Z,4.83
2017-10-18T03:50:17.116Z,4.50
2017-10-18T03:52:45.532Z,5.00
2017-10-18T03:55:14.406Z,4.30
2017-10-18T03:57:42.523Z,4.80
2017-10-18T04:00:10.659Z,4.57
2017-10-18T04:02:39.539Z,4.65
2017-10-18T04:05:07.684Z,5.30
2017-10-18T04:07:35.800Z,4.70
2017-10-18T04:10:05.026Z,4.40
2017-10-18T04:12:33.971Z,5.93
2017-10-18T04:15:02.079Z,5.63
2017-10-18T04:17:30.288Z,4.83
2017-10-18T04:19:58.402Z,4.70
2017-10-18T04:22:27.300Z,4.00
2017-10-18T04:24:56.175Z,5.33
2017-10-18T04:27:25.080Z,4.73
2017-10-18T04:29:53.962Z,5.30
2017-10-18T04:32:23.155Z,4.53
2017-10-18T04:34:52.036Z,5.00
2017-10-18T04:37:20.257Z,5.00
2017-10-18T04:39:48.373Z,4.80
2017-10-18T04:42:16.482Z,4.80
2017-10-18T04:44:44.615Z,4.77
2017-10-18T04:47:12.749Z,5.10
2017-10-18T04:49:41.193Z,5.20
2017-10-18T04:52:10.080Z,5.33
2017-10-18T04:54:38.979Z,5.13
2017-10-18T04:57:07.861Z,4.70
2017-10-18T04:59:36.764Z,4.47
2017-10-18T05:02:05.652Z,6.10
2017-10-18T05:04:34.525Z,4.95
2017-10-18T05:07:03.432Z,4.20
2017-10-18T05:09:32.360Z,5.93
2017-10-18T05:12:00.783Z,4.90
2017-10-18T05:14:29.668Z,5.10
2017-10-18T05:16:58.555Z,5.10
2017-10-18T05:19:26.685Z,5.10
2017-10-18T05:21:54.810Z,5.65
2017-10-18T05:24:23.701Z,5.40
2017-10-18T05:26:52.601Z,5.67
2017-10-18T05:29:21.751Z,5.20
2017-10-18T05:31:49.881Z,5.12
2017-10-18T05:34:18.004Z,5.33
2017-10-18T05:36:46.161Z,5.10
2017-10-18T05:39:14.307Z,5.30
2017-10-18T05:41:42.436Z,5.17
2017-10-18T05:44:10.582Z,5.50
2017-10-18T05:46:38.723Z,5.87
2017-10-18T05:49:06.850Z,5.47
2017-10-18T05:51:34.980Z,5.10
2017-10-18T05:54:03.094Z,5.70
2017-10-18T05:56:31.216Z,5.97
2017-10-18T05:58:59.336Z,5.53
2017-10-18T06:01:27.445Z,5.43
2017-10-18T06:03:55.567Z,5.30
2017-10-18T06:06:23.708Z,5.80
2017-10-18T06:08:51.828Z,6.70
2017-10-18T06:11:19.936Z,6.53
2017-10-18T06:13:48.083Z,6.70
2017-10-18T06:16:16.964Z,5.53
2017-10-18T06:18:45.083Z,5.67
2017-10-18T06:21:13.207Z,6.60
2017-10-18T06:23:41.337Z,5.50
2017-10-18T06:26:09.494Z,6.00
2017-10-18T06:28:38.375Z,6.10
2017-10-18T06:31:06.831Z,6.50
2017-10-18T06:33:35.749Z,7.40
2017-10-18T06:36:03.869Z,6.00
2017-10-18T06:38:32.013Z,6.90
2017-10-18T06:41:00.119Z,6.93
2017-10-18T06:43:28.261Z,7.00
2017-10-18T06:45:56.414Z,6.75
2017-10-18T06:48:24.577Z,6.00
2017-10-18T06:50:52.707Z,6.90
2017-10-18T06:53:20.863Z,6.57
2017-10-18T06:55:49.000Z,5.32
2017-10-18T06:58:17.152Z,5.87
2017-10-18T07:00:46.882Z,6.60
2017-10-18T07:03:15.123Z,6.40
2017-10-18T07:05:44.290Z,6.75
2017-10-18T07:08:13.193Z,6.05
2017-10-18T07:10:41.348Z,6.43
2017-10-18T07:13:09.491Z,5.40
2017-10-18T07:15:37.667Z,6.10
2017-10-18T07:18:05.796Z,5.90
2017-10-18T07:20:33.926Z,6.00
2017-10-18T07:23:02.381Z,7.03
2017-10-18T07:25:30.652Z,6.07
2017-10-18T07:27:58.791Z,5.57
2017-10-18T07:30:26.932Z,5.63
2017-10-18T07:32:55.059Z,5.97
2017-10-18T07:35:23.984Z,5.18
2017-10-18T07:37:52.111Z,4.80
2017-10-18T07:40:21.058Z,4.57
2017-10-18T07:42:49.685Z,4.60
2017-10-18T07:45:17.801Z,3.70
2017-10-18T07:47:45.930Z,4.20
2017-10-18T07:50:14.829Z,4.00
2017-10-18T07:52:43.748Z,3.40
2017-10-18T07:55:11.935Z,3.93
2017-10-18T07:57:40.073Z,3.83
2017-10-18T08:00:08.206Z,3.70
2017-10-18T08:02:36.368Z,3.83
2017-10-18T08:05:04.503Z,3.60
2017-10-18T08:07:32.634Z,2.73
2017-10-18T08:10:00.794Z,3.00
2017-10-18T08:12:28.952Z,3.50
2017-10-18T08:14:57.077Z,3.40
2017-10-18T08:17:25.211Z,3.30
2017-10-18T08:19:53.365Z,3.03
2017-10-18T08:22:21.545Z,3.33
2017-10-18T08:24:49.691Z,2.67
2017-10-18T08:27:17.822Z,3.47
2017-10-18T08:29:45.943Z,2.83
2017-10-18T08:32:14.092Z,2.95
2017-10-18T08:34:42.228Z,2.90
2017-10-18T08:37:10.355Z,3.40
2017-10-18T08:39:38.500Z,2.70
2017-10-18T08:42:07.416Z,3.40
2017-10-18T08:44:35.541Z,2.97
2017-10-18T08:47:03.685Z,3.20
2017-10-18T08:49:31.815Z,3.10
2017-10-18T08:51:59.968Z,3.50
2017-10-18T08:54:28.886Z,3.20
2017-10-18T08:56:57.026Z,3.10
2017-10-18T08:59:25.144Z,3.53
2017-10-18T09:01:53.424Z,4.17
2017-10-18T09:04:21.821Z,3.80
2017-10-18T09:06:49.961Z,4.30
2017-10-18T09:09:18.091Z,4.07
2017-10-18T09:11:46.224Z,3.70
2017-10-18T09:14:14.356Z,4.57
2017-10-18T09:16:42.535Z,4.80
2017-10-18T09:19:10.655Z,5.13
2017-10-18T09:21:38.803Z,7.67
2017-10-18T09:24:06.928Z,6.33
2017-10-18T09:26:35.835Z,7.70
2017-10-18T09:29:04.788Z,6.30
2017-10-18T09:31:32.915Z,6.57
2017-10-18T09:34:01.052Z,8.23
2017-10-18T09:36:29.964Z,7.77
2017-10-18T09:38:58.120Z,8.20
2017-10-18T09:41:26.263Z,7.30
2017-10-18T09:43:54.811Z,10.77
2017-10-18T09:46:22.923Z,8.90
2017-10-18T09:48:51.072Z,7.17
2017-10-18T09:51:19.217Z,10.70
2017-10-18T09:53:47.372Z,8.03
2017-10-18T09:56:16.294Z,8.37
2017-10-18T09:58:44.421Z,6.73
2017-10-18T10:01:12.555Z,8.47
2017-10-18T10:03:40.714Z,6.80
2017-10-18T10:06:08.851Z,7.83
2017-10-18T10:08:37.780Z,7.83
2017-10-18T10:11:05.964Z,7.63
2017-10-18T10:13:34.104Z,7.30
2017-10-18T10:16:02.263Z,6.50
2017-10-18T10:18:31.159Z,7.20
2017-10-18T10:20:59.311Z,8.60
2017-10-18T10:23:28.224Z,8.30
2017-10-18T10:25:56.363Z,8.67
2017-10-18T10:28:25.579Z,7.80
2017-10-18T10:30:54.476Z,7.27
2017-10-18T10:33:23.379Z,8.83
2017-10-18T10:35:51.538Z,8.30
2017-10-18T10:38:19.790Z,8.23
2017-10-18T10:40:47.944Z,8.73
2017-10-18T10:43:16.070Z,8.63
2017-10-18T10:45:44.218Z,11.17
2017-10-18T10:48:12.365Z,9.93
2017-10-18T10:50:40.502Z,10.73
2017-10-18T10:53:08.651Z,10.00
2017-10-18T10:55:36.798Z,9.50
2017-10-18T10:58:04.940Z,9.47
2017-10-18T11:00:33.059Z,8.50
2017-10-18T11:03:01.965Z,8.40
2017-10-18T11:05:30.108Z,8.20
2017-10-18T11:07:58.295Z,8.23
2017-10-18T11:10:27.205Z,8.67
2017-10-18T11:12:55.332Z,8.00
2017-10-18T11:15:23.475Z,8.87
2017-10-18T11:17:51.618Z,8.10
2017-10-18T11:20:20.527Z,8.40
2017-10-18T11:22:48.991Z,7.80
2017-10-18T11:25:17.428Z,7.40
2017-10-18T11:27:45.576Z,7.83
2017-10-18T11:30:13.738Z,8.47
2017-10-18T11:32:41.869Z,7.13
2017-10-18T11:35:10.764Z,7.83
2017-10-18T11:37:39.694Z,7.40
2017-10-18T11:40:07.806Z,7.00
2017-10-18T11:42:35.947Z,7.00
2017-10-18T11:45:04.115Z,7.50
2017-10-18T11:47:32.233Z,7.60
2017-10-18T11:50:01.200Z,7.27
2017-10-18T11:52:29.314Z,6.00
2017-10-18T11:54:57.785Z,7.60
2017-10-18T11:57:26.680Z,6.87
2017-10-18T11:59:55.732Z,6.80
2017-10-18T12:02:23.882Z,5.77
2017-10-18T12:04:52.011Z,7.43
2017-10-18T12:07:21.210Z,7.33
2017-10-18T12:09:50.138Z,7.40
2017-10-18T12:12:18.245Z,7.70
2017-10-18T12:14:46.414Z,6.77
2017-10-18T12:17:14.549Z,7.47
2017-10-18T12:19:42.714Z,6.77
2017-10-18T12:22:10.844Z,6.80
2017-10-18T12:24:38.985Z,6.47
2017-10-18T12:27:07.112Z,6.23
2017-10-18T12:29:35.999Z,5.87
2017-10-18T12:32:04.918Z,5.60
2017-10-18T12:34:33.054Z,5.20
2017-10-18T12:37:01.966Z,4.90
2017-10-18T12:39:30.172Z,4.67
2017-10-18T12:41:58.312Z,5.50
2017-10-18T12:44:27.253Z,5.17
2017-10-18T12:46:55.394Z,5.87
2017-10-18T12:49:23.540Z,4.40
2017-10-18T12:51:51.703Z,4.43
2017-10-18T12:54:19.996Z,4.90
2017-10-18T12:56:48.137Z,6.03
2017-10-18T12:59:16.568Z,5.77
2017-10-18T13:01:44.716Z,6.50
2017-10-18T13:04:12.861Z,5.93
2017-10-18T13:06:40.998Z,6.70
2017-10-18T13:09:09.124Z,7.60
2017-10-18T13:11:38.040Z,6.73
2017-10-18T13:14:06.176Z,5.73
2017-10-18T13:16:34.667Z,5.97
2017-10-18T13:19:03.556Z,6.63
2017-10-18T13:21:32.454Z,4.83
2017-10-18T13:24:00.614Z,5.53
2017-10-18T13:26:29.503Z,5.00
2017-10-18T13:28:58.423Z,5.10
2017-10-18T13:31:26.544Z,5.20
2017-10-18T13:33:54.743Z,4.73
2017-10-18T13:36:23.676Z,4.50
2017-10-18T13:38:52.119Z,5.13
2017-10-18T13:41:20.279Z,4.50
2017-10-18T13:43:48.387Z,4.50
2017-10-18T13:46:16.520Z,5.90
2017-10-18T13:48:45.423Z,7.13
2017-10-18T13:51:14.319Z,6.83
2017-10-18T13:53:43.222Z,6.97
2017-10-18T13:56:11.602Z,8.00
2017-10-18T13:58:39.767Z,7.37
2017-10-18T14:01:07.925Z,7.17
2017-10-18T14:03:36.824Z,6.97
2017-10-18T14:06:05.701Z,6.50
2017-10-18T14:08:34.606Z,6.30
2017-10-18T14:11:02.746Z,7.60
2017-10-18T14:13:31.289Z,6.80
2017-10-18T14:15:59.435Z,7.30
2017-10-18T14:18:27.575Z,6.13
2017-10-18T14:20:55.715Z,6.40
2017-10-18T14:23:24.665Z,6.50
2017-10-18T14:25:53.580Z,5.70
2017-10-18T14:28:30.221Z,6.93
2017-10-18T14:30:59.355Z,5.53
2017-10-18T14:33:27.475Z,6.93
2017-10-18T14:35:56.796Z,6.37
2017-10-18T14:38:24.941Z,7.03
2017-10-18T14:40:53.077Z,7.67
2017-10-18T14:43:21.256Z,6.60
2017-10-18T14:45:50.149Z,6.10
2017-10-18T14:50:43.072Z,5.63
2017-10-18T14:53:11.448Z,5.53
2017-10-18T14:55:39.575Z,5.27
2017-10-18T14:58:07.689Z,5.10
2017-10-18T15:00:35.859Z,4.90
2017-10-18T15:03:03.994Z,6.23
2017-10-18T15:05:32.168Z,6.03
2017-10-18T15:08:00.303Z,6.13
2017-10-18T15:10:28.454Z,6.07
2017-10-18T15:12:57.369Z,5.80
2017-10-18T15:15:25.806Z,5.97
2017-10-18T15:17:54.818Z,6.00
2017-10-18T15:20:22.990Z,5.47
2017-10-18T15:22:51.550Z,5.00
2017-10-18T15:25:19.765Z,5.67
2017-10-18T15:27:47.936Z,6.13
2017-10-18T15:30:16.098Z,5.23
2017-10-18T15:32:44.218Z,5.40
2017-10-18T15:35:12.383Z,5.83
2017-10-18T15:37:40.511Z,5.30
2017-10-18T15:40:08.662Z,4.80
2017-10-18T15:42:37.934Z,5.20
2017-10-18T15:45:06.074Z,5.07
2017-10-18T15:47:34.209Z,5.00
2017-10-18T15:50:03.428Z,4.53
2017-10-18T15:52:31.583Z,4.83
2017-10-18T15:55:00.464Z,4.77
2017-10-18T15:57:29.376Z,4.87
2017-10-18T15:59:57.520Z,4.90
2017-10-18T16:02:26.461Z,4.83
2017-10-18T16:04:54.619Z,5.30
2017-10-18T16:07:22.776Z,4.73
2017-10-18T16:09:50.931Z,5.00
2017-10-18T16:12:19.075Z,5.40
2017-10-18T16:14:47.198Z,4.90
2017-10-18T16:17:15.342Z,5.53
2017-10-18T16:19:43.484Z,5.00
2017-10-18T16:22:11.615Z,5.47
2017-10-18T16:24:40.542Z,5.37
2017-10-18T16:27:09.451Z,5.50
2017-10-18T16:29:39.032Z,5.70
2017-10-18T16:32:07.799Z,6.10
2017-10-18T16:34:35.942Z,6.20
2017-10-18T16:37:04.062Z,5.77
2017-10-18T16:39:32.313Z,5.90
2017-10-18T16:42:00.471Z,5.40
2017-10-18T16:44:29.399Z,5.70
2017-10-18T16:46:57.536Z,5.90
2017-10-18T16:49:26.436Z,5.63
2017-10-18T16:51:54.581Z,5.33
2017-10-18T16:54:22.713Z,6.70
2017-10-18T16:56:50.839Z,7.53
2017-10-18T16:59:19.792Z,8.07
2017-10-18T17:01:47.929Z,7.73
2017-10-18T17:04:16.062Z,9.30
2017-10-18T17:06:44.991Z,8.20
2017-10-18T17:09:13.148Z,8.20
2017-10-18T17:11:42.039Z,8.50
2017-10-18T17:14:10.983Z,8.60
2017-10-18T17:16:39.123Z,8.77
2017-10-18T17:19:07.298Z,8.50
2017-10-18T17:21:35.478Z,8.77
2017-10-18T17:24:03.611Z,10.20
2017-10-18T17:26:31.757Z,12.37
2017-10-18T17:28:59.908Z,25.00
2017-10-18T17:31:28.088Z,17.90
2017-10-18T17:33:56.274Z,18.20
2017-10-18T17:36:24.458Z,20.10
2017-10-18T17:38:52.616Z,17.20
2017-10-18T17:41:20.766Z,15.63
2017-10-18T17:43:48.930Z,12.30
2017-10-18T17:46:17.098Z,15.10
2017-10-18T17:48:45.264Z,13.10
2017-10-18T17:51:14.185Z,11.33
2017-10-18T17:53:42.315Z,10.73
2017-10-18T17:56:10.511Z,9.00
2017-10-18T17:58:38.652Z,9.82
2017-10-18T18:01:06.844Z,9.17
2017-10-18T18:03:35.035Z,9.43
2017-10-18T18:06:03.181Z,8.20
2017-10-18T18:08:31.339Z,8.43
2017-10-18T18:11:00.296Z,7.33
2017-10-18T18:13:28.473Z,7.78
2017-10-18T18:15:57.630Z,7.65
2017-10-18T18:18:25.813Z,7.75
2017-10-18T18:20:53.945Z,9.18
2017-10-18T18:23:22.888Z,8.07
2017-10-18T18:25:51.016Z,8.40
2017-10-18T18:28:19.194Z,8.65
2017-10-18T18:30:47.349Z,8.30
2017-10-18T18:33:16.259Z,7.43
2017-10-18T18:35:44.488Z,8.80
2017-10-18T18:38:12.715Z,8.30
2017-10-18T18:40:40.907Z,7.80
2017-10-18T18:43:09.062Z,7.80
2017-10-18T18:45:38.080Z,7.28
2017-10-18T18:48:06.216Z,15.97
2017-10-18T18:50:35.269Z,18.13
2017-10-18T18:53:03.440Z,16.00
2017-10-18T18:55:31.611Z,15.95
2017-10-18T18:58:10.291Z,13.57
2017-10-18T19:00:39.428Z,13.07
2017-10-18T19:03:07.692Z,10.80
2017-10-18T19:05:36.672Z,10.27
2017-10-18T19:08:04.856Z,10.03
2017-10-18T19:10:33.047Z,10.20
2017-10-18T19:13:01.231Z,9.73
2017-10-18T19:15:29.632Z,10.53
2017-10-18T19:17:58.579Z,11.40
2017-10-18T19:20:26.766Z,11.23
2017-10-18T19:22:55.803Z,10.70
2017-10-18T19:25:24.091Z,9.17
2017-10-18T19:27:52.371Z,9.63
2017-10-18T19:30:20.825Z,10.45
2017-10-18T19:32:49.081Z,8.90
2017-10-18T19:35:17.588Z,9.93
2017-10-18T19:37:46.492Z,8.23
2017-10-18T19:40:14.730Z,9.67
2017-10-18T19:42:43.002Z,10.20
2017-10-18T19:45:11.182Z,9.23
2017-10-18T19:47:40.178Z,8.80
2017-10-18T19:50:09.479Z,9.32
2017-10-18T19:52:39.289Z,8.63
2017-10-18T19:55:07.493Z,11.02
2017-10-18T19:57:35.768Z,9.50
2017-10-18T20:00:04.009Z,8.20
2017-10-18T20:02:33.008Z,9.10
2017-10-18T20:05:01.261Z,8.30
2017-10-18T20:07:29.453Z,9.80
2017-10-18T20:09:57.566Z,9.27
2017-10-18T20:12:25.813Z,8.80
2017-10-18T20:14:54.746Z,9.60
2017-10-18T20:17:22.923Z,10.17
2017-10-18T20:19:51.086Z,11.27
2017-10-18T20:22:19.659Z,10.67
2017-10-18T20:24:47.826Z,10.80
2017-10-18T20:27:16.498Z,9.87
2017-10-18T20:29:44.639Z,10.40
2017-10-18T20:32:13.541Z,10.13
2017-10-18T20:34:42.473Z,9.67
2017-10-18T20:37:10.694Z,9.65
2017-10-18T20:39:39.785Z,10.87
2017-10-18T20:42:07.915Z,10.57
2017-10-18T20:44:36.895Z,10.20
2017-10-18T20:47:05.021Z,9.77
2017-10-18T20:49:33.620Z,9.43
2017-10-18T20:52:02.508Z,9.95
2017-10-18T20:54:31.429Z,9.90
2017-10-18T20:56:59.751Z,10.40
2017-10-18T20:59:27.910Z,9.57
2017-10-18T21:01:56.192Z,10.68
2017-10-18T21:04:24.322Z,11.33
2017-10-18T21:06:52.622Z,11.98
2017-10-18T21:09:20.786Z,11.65
2017-10-18T21:11:49.057Z,10.80
2017-10-18T21:14:17.242Z,11.40
2017-10-18T21:16:45.432Z,10.10
2017-10-18T21:19:13.861Z,11.80
2017-10-18T21:21:42.778Z,9.75
2017-10-18T21:24:10.919Z,10.27
2017-10-18T21:26:39.360Z,10.55
2017-10-18T21:29:08.451Z,9.40
2017-10-18T21:31:36.677Z,9.80
2017-10-18T21:34:04.857Z,10.73
2017-10-18T21:36:33.042Z,10.27
2017-10-18T21:39:02.072Z,10.47
2017-10-18T21:41:30.593Z,10.23
2017-10-18T21:43:59.695Z,9.93
2017-10-18T21:46:27.870Z,10.73
2017-10-18T21:48:56.758Z,9.67
2017-10-18T21:51:24.890Z,9.70
2017-10-18T21:53:53.803Z,10.27
2017-10-18T21:56:21.973Z,9.82
2017-10-18T21:58:50.092Z,10.27
2017-10-18T22:01:18.374Z,10.45
2017-10-18T22:03:46.513Z,9.87
2017-10-18T22:06:14.661Z,10.93
2017-10-18T22:08:42.795Z,9.65
2017-10-18T22:11:10.931Z,9.07
2017-10-18T22:13:39.106Z,8.85
2017-10-18T22:16:07.387Z,9.23
2017-10-18T22:18:35.553Z,9.68
2017-10-18T22:21:03.683Z,8.65
2017-10-18T22:23:32.618Z,9.25
2017-10-18T22:26:00.745Z,10.47
2017-10-18T22:28:28.951Z,9.40
2017-10-18T22:30:57.169Z,9.60
2017-10-18T22:33:26.735Z,9.32
2017-10-18T22:35:55.312Z,9.60
2017-10-18T22:38:23.464Z,10.45
2017-10-18T22:40:52.347Z,9.63
2017-10-18T22:43:21.299Z,10.80
2017-10-18T22:45:49.421Z,10.07
2017-10-18T22:48:18.351Z,8.50
2017-10-18T22:50:46.702Z,8.93
2017-10-18T22:53:14.921Z,10.20
2017-10-18T22:55:43.871Z,10.13
2017-10-18T22:58:11.997Z,9.00
2017-10-18T23:00:40.140Z,8.95
2017-10-18T23:03:08.275Z,9.25
2017-10-18T23:05:37.208Z,8.83
2017-10-18T23:08:05.337Z,9.30
2017-10-18T23:10:34.265Z,8.23
2017-10-18T23:13:02.403Z,8.20
2017-10-18T23:15:30.539Z,7.90
2017-10-18T23:17:58.689Z,9.38
2017-10-18T23:20:26.823Z,9.07
2017-10-18T23:22:55.728Z,8.13
2017-10-18T23:25:23.852Z,8.53
2017-10-18T23:27:51.971Z,8.00
2017-10-18T23:30:20.395Z,8.10
2017-10-18T23:32:48.515Z,8.60
2017-10-18T23:35:17.923Z,9.33
2017-10-18T23:37:46.061Z,8.48
2017-10-18T23:40:14.203Z,8.53
2017-10-18T23:42:42.357Z,7.78
2017-10-18T23:45:10.493Z,8.57
2017-10-18T23:47:39.399Z,8.77
2017-10-18T23:50:07.526Z,9.10
2017-10-18T23:52:41.376Z,8.68
2017-10-18T23:55:09.513Z,8.17
2017-10-18T23:57:37.661Z,8.45
